X  Kiinni Metar Aviation säätiedot     EDDK Cologne Bonn Airport
Lämpötila
5°C Lämpötila
4°C Kastepiste
93% Kosteus



Tuuli
13 KM/T
8 MPH
4 M/S
7 KTS



330°
PPL
Nykyiset olosuhteet

Enimmäkseen pilvistä Enimmäkseen pilvistä
Paine 1009.82 (hPa) - 29.82 (inHg)
Näkyvyys 6 (maili) - 9.7 (km)
Lentokenttä
Lentokentän koodi EDDK

Sijainti: Cologne Bonn Airport
Etäisyys: 56 (km)

Metar:
EDDK 170320Z AUTO 33007KT 300V360 9999 BKN007 OVC011 05/04 Q1010 NOSIG

Aika: 2024-04-17 05:20 CEST